Time;durP1;ratioP1;P1;durP2;ratioP2;P2;SDS_P1;SDS_P2;PMS_P1;PMS_P2;Temp;Humidity;BMP_temperature;BMP_pressure;BME280_temperature;BME280_humidity;BME280_pressure;Samples;Min_cycle;Max_cycle;Signal;HPM_P1;HPM_P2
2021/10/24 00:01:04;;;;;;;8.43;3.35;;;;;;;;;;5035844;28;20068;-84
2021/10/24 00:03:31;;;;;;;8.60;3.15;;;;;;;;;;5035772;28;20033;-85
2021/10/24 00:05:58;;;;;;;11.30;3.67;;;;;;;;;;5035804;28;20033;-86
2021/10/24 00:08:24;;;;;;;12.50;3.47;;;;;;;;;;5018284;28;20071;-85
2021/10/24 00:10:50;;;;;;;10.27;2.70;;;;;;;;;;5017961;28;20028;-85
2021/10/24 00:13:16;;;;;;;8.88;4.00;;;;;;;;;;5017945;28;20029;-86
2021/10/24 00:15:43;;;;;;;15.88;5.50;;;;;;;;;;5018072;28;20029;-84
2021/10/24 00:18:09;;;;;;;20.30;8.68;;;;;;;;;;5036111;28;20033;-86
2021/10/24 00:20:35;;;;;;;26.40;10.77;;;;;;;;;;5035731;28;20023;-86
2021/10/24 00:23:02;;;;;;;17.02;8.00;;;;;;;;;;5017739;28;20087;-86
2021/10/24 00:25:28;;;;;;;23.23;9.18;;;;;;;;;;5035359;28;20037;-85
2021/10/24 00:27:55;;;;;;;22.33;8.93;;;;;;;;;;5035432;28;20032;-85
2021/10/24 00:30:21;;;;;;;21.08;8.73;;;;;;;;;;5017579;28;20087;-85
2021/10/24 00:32:48;;;;;;;19.45;9.07;;;;;;;;;;5017738;28;20021;-84
2021/10/24 00:35:14;;;;;;;20.90;8.13;;;;;;;;;;5017528;28;20029;-85
2021/10/24 00:37:41;;;;;;;16.63;7.72;;;;;;;;;;5035182;28;20017;-86
2021/10/24 00:40:08;;;;;;;20.38;7.63;;;;;;;;;;5035258;28;20057;-87
2021/10/24 00:42:34;;;;;;;14.70;8.05;;;;;;;;;;5017334;28;20029;-86
2021/10/24 00:45:00;;;;;;;17.23;6.90;;;;;;;;;;5035433;28;20033;-85
2021/10/24 00:47:30;;;;;;;46.92;18.48;;;;;;;;;;5017416;28;20022;-86
2021/10/24 00:49:56;;;;;;;70.90;23.67;;;;;;;;;;5034999;28;20110;-86
2021/10/24 00:52:22;;;;;;;55.40;19.35;;;;;;;;;;5017226;28;20516;-84
2021/10/24 00:54:49;;;;;;;47.30;19.35;;;;;;;;;;5034983;28;20478;-85
2021/10/24 00:57:15;;;;;;;60.95;20.10;;;;;;;;;;5017105;28;20048;-85
2021/10/24 00:59:41;;;;;;;67.10;22.70;;;;;;;;;;5034834;28;20049;-85
2021/10/24 01:02:07;;;;;;;53.00;20.33;;;;;;;;;;5016964;28;20029;-86
2021/10/24 01:04:34;;;;;;;57.03;20.98;;;;;;;;;;5035113;28;20045;-85
2021/10/24 01:07:03;;;;;;;44.95;18.17;;;;;;;;;;5017031;28;20133;-85
2021/10/24 01:09:31;;;;;;;44.50;16.50;;;;;;;;;;5016032;28;20080;-85
2021/10/24 01:11:57;;;;;;;47.42;17.52;;;;;;;;;;5016873;28;20055;-85
2021/10/24 01:14:24;;;;;;;50.92;17.05;;;;;;;;;;5016756;28;20397;-85
2021/10/24 01:16:53;;;;;;;46.15;15.93;;;;;;;;;;5034402;28;20048;-86
2021/10/24 01:19:20;;;;;;;44.75;15.80;;;;;;;;;;5016595;28;20043;-86
2021/10/24 01:21:47;;;;;;;37.88;14.48;;;;;;;;;;5034413;28;20053;-85
2021/10/24 01:24:13;;;;;;;44.60;14.57;;;;;;;;;;5034748;28;20374;-85
2021/10/24 01:26:41;;;;;;;55.05;17.42;;;;;;;;;;5016603;28;20029;-85
2021/10/24 01:29:08;;;;;;;33.72;13.75;;;;;;;;;;5034303;28;20032;-85
2021/10/24 01:31:35;;;;;;;33.17;12.35;;;;;;;;;;5016415;28;20067;-85
2021/10/24 01:34:01;;;;;;;29.77;11.10;;;;;;;;;;5034227;28;20113;-85
2021/10/24 01:36:27;;;;;;;27.55;9.18;;;;;;;;;;5034016;28;20017;-85
2021/10/24 01:38:54;;;;;;;24.35;9.82;;;;;;;;;;5016395;28;20017;-85
2021/10/24 01:41:23;;;;;;;25.33;8.75;;;;;;;;;;5016336;28;20489;-85
2021/10/24 01:43:49;;;;;;;17.95;8.93;;;;;;;;;;5016206;28;20485;-85
2021/10/24 01:46:16;;;;;;;31.85;9.27;;;;;;;;;;5033965;28;20043;-85
2021/10/24 01:48:43;;;;;;;23.38;8.93;;;;;;;;;;5034331;28;20032;-85
2021/10/24 01:51:10;;;;;;;21.08;8.52;;;;;;;;;;5016262;28;20025;-85
2021/10/24 01:53:37;;;;;;;23.40;7.93;;;;;;;;;;5016312;28;20491;-86
2021/10/24 01:56:04;;;;;;;20.75;7.82;;;;;;;;;;5016174;28;20064;-85
2021/10/24 01:58:31;;;;;;;16.27;6.80;;;;;;;;;;5016092;28;20045;-85
2021/10/24 02:00:57;;;;;;;14.52;5.82;;;;;;;;;;5033680;28;20022;-85
2021/10/24 02:03:24;;;;;;;9.13;3.60;;;;;;;;;;5033733;28;20029;-86
2021/10/24 02:05:50;;;;;;;15.68;5.15;;;;;;;;;;5015897;28;20047;-84
2021/10/24 02:08:17;;;;;;;19.13;5.15;;;;;;;;;;5033628;28;20085;-85
2021/10/24 02:10:44;;;;;;;13.23;4.93;;;;;;;;;;5015835;28;20390;-85
2021/10/24 02:13:10;;;;;;;10.95;3.88;;;;;;;;;;5015806;28;20313;-85
2021/10/24 02:15:37;;;;;;;12.00;5.13;;;;;;;;;;5015853;28;20048;-85
2021/10/24 02:18:06;;;;;;;12.32;4.88;;;;;;;;;;5016078;28;20030;-85
2021/10/24 02:20:35;;;;;;;22.38;4.82;;;;;;;;;;5015296;28;20049;-86
2021/10/24 02:23:02;;;;;;;7.10;3.45;;;;;;;;;;5015806;28;20087;-85
2021/10/24 02:25:29;;;;;;;7.00;4.10;;;;;;;;;;5033265;28;20037;-85
2021/10/24 02:27:55;;;;;;;8.50;3.70;;;;;;;;;;5015709;28;20494;-85
2021/10/24 02:30:22;;;;;;;5.90;3.03;;;;;;;;;;5033960;28;20033;-85
2021/10/24 02:32:48;;;;;;;13.55;4.57;;;;;;;;;;5015601;28;20021;-85
2021/10/24 02:35:15;;;;;;;7.13;2.97;;;;;;;;;;5033322;28;20418;-85
2021/10/24 02:37:42;;;;;;;4.90;2.40;;;;;;;;;;5033255;28;20530;-85
2021/10/24 02:40:09;;;;;;;12.07;3.17;;;;;;;;;;5015442;28;20076;-85
2021/10/24 02:42:36;;;;;;;8.77;3.42;;;;;;;;;;5015548;28;20067;-85
2021/10/24 02:45:02;;;;;;;6.50;3.30;;;;;;;;;;5015446;28;20044;-86
2021/10/24 02:47:29;;;;;;;4.93;2.40;;;;;;;;;;5015610;28;20360;-86
2021/10/24 02:49:55;;;;;;;4.40;2.70;;;;;;;;;;5015485;28;20125;-85
2021/10/24 02:52:21;;;;;;;6.82;2.25;;;;;;;;;;5033148;28;20037;-83
2021/10/24 02:54:48;;;;;;;2.75;1.65;;;;;;;;;;5015422;28;20028;-85
2021/10/24 02:57:14;;;;;;;5.18;2.50;;;;;;;;;;5033168;28;20034;-85
2021/10/24 02:59:40;;;;;;;8.68;2.72;;;;;;;;;;5033178;28;20022;-85
2021/10/24 03:02:07;;;;;;;7.40;2.47;;;;;;;;;;5033013;28;20549;-86
2021/10/24 03:04:33;;;;;;;11.45;3.55;;;;;;;;;;5015328;28;20120;-86
2021/10/24 03:06:59;;;;;;;10.13;3.08;;;;;;;;;;5033547;28;20043;-85
2021/10/24 03:09:26;;;;;;;14.13;4.28;;;;;;;;;;5015357;28;20051;-85
2021/10/24 03:11:52;;;;;;;7.65;3.17;;;;;;;;;;5033155;28;20387;-85
2021/10/24 03:14:18;;;;;;;13.93;4.53;;;;;;;;;;5015163;28;20025;-85
2021/10/24 03:16:45;;;;;;;10.63;5.20;;;;;;;;;;5033513;28;20038;-85
2021/10/24 03:19:12;;;;;;;12.32;5.80;;;;;;;;;;5033177;28;20466;-85
2021/10/24 03:21:38;;;;;;;8.00;2.92;;;;;;;;;;5032861;28;20561;-84
2021/10/24 03:24:05;;;;;;;10.05;3.92;;;;;;;;;;5032804;28;20037;-85
2021/10/24 03:26:31;;;;;;;14.07;4.38;;;;;;;;;;5015260;28;20041;-85
2021/10/24 03:28:58;;;;;;;8.48;3.58;;;;;;;;;;5015143;28;20474;-84
2021/10/24 03:31:24;;;;;;;8.55;3.17;;;;;;;;;;5015331;28;20506;-85
2021/10/24 03:33:51;;;;;;;10.18;3.00;;;;;;;;;;5036463;28;20025;-86
2021/10/24 03:36:20;;;;;;;8.38;3.58;;;;;;;;;;5018754;28;20079;-86
2021/10/24 03:38:47;;;;;;;10.10;3.60;;;;;;;;;;5036441;28;20045;-85
2021/10/24 03:41:14;;;;;;;10.57;3.58;;;;;;;;;;5018638;28;20022;-85
2021/10/24 03:43:41;;;;;;;6.00;2.67;;;;;;;;;;5018753;28;20116;-85
2021/10/24 03:46:07;;;;;;;6.28;3.22;;;;;;;;;;5019183;28;20188;-86
2021/10/24 03:48:34;;;;;;;10.25;3.15;;;;;;;;;;5019576;28;20021;-85
2021/10/24 03:51:00;;;;;;;8.52;2.95;;;;;;;;;;5019385;28;20080;-83
2021/10/24 03:53:27;;;;;;;13.40;3.75;;;;;;;;;;5037009;28;20458;-85
2021/10/24 03:55:53;;;;;;;9.68;3.92;;;;;;;;;;5018336;28;20026;-85
2021/10/24 03:58:19;;;;;;;7.78;2.90;;;;;;;;;;5036158;28;20390;-84
2021/10/24 04:00:45;;;;;;;9.57;3.47;;;;;;;;;;5018106;28;20029;-85
2021/10/24 04:03:12;;;;;;;10.18;3.42;;;;;;;;;;5035949;28;20100;-85
2021/10/24 04:05:39;;;;;;;14.18;4.85;;;;;;;;;;5018565;28;20641;-85
2021/10/24 04:08:05;;;;;;;7.78;3.47;;;;;;;;;;5018050;28;20029;-85
2021/10/24 04:10:31;;;;;;;7.18;2.92;;;;;;;;;;5035797;28;20032;-85
2021/10/24 04:12:58;;;;;;;8.48;3.25;;;;;;;;;;5035871;28;20025;-84
2021/10/24 04:15:25;;;;;;;5.38;2.85;;;;;;;;;;5017992;28;20508;-86
2021/10/24 04:17:51;;;;;;;9.18;2.67;;;;;;;;;;5035547;28;20025;-85
2021/10/24 04:20:20;;;;;;;6.28;2.45;;;;;;;;;;5035640;28;20028;-86
2021/10/24 04:22:46;;;;;;;6.40;2.58;;;;;;;;;;5017876;28;20041;-84
2021/10/24 04:25:13;;;;;;;7.18;3.35;;;;;;;;;;5017797;28;20073;-84
2021/10/24 04:27:40;;;;;;;6.70;3.72;;;;;;;;;;5017712;28;20029;-84
2021/10/24 04:30:07;;;;;;;6.72;1.90;;;;;;;;;;5017817;28;20021;-86
2021/10/24 04:32:34;;;;;;;8.07;2.55;;;;;;;;;;5017455;28;20032;-84
2021/10/24 04:35:00;;;;;;;4.68;2.55;;;;;;;;;;5017648;28;20478;-85
2021/10/24 04:37:26;;;;;;;9.80;2.78;;;;;;;;;;5017466;28;20116;-85
2021/10/24 04:39:52;;;;;;;12.70;2.42;;;;;;;;;;5017433;28;20033;-86
2021/10/24 04:42:19;;;;;;;7.25;2.55;;;;;;;;;;5017470;28;20022;-85
2021/10/24 04:44:45;;;;;;;3.38;1.80;;;;;;;;;;5034970;28;20025;-84
2021/10/24 04:47:11;;;;;;;11.23;2.30;;;;;;;;;;5017284;28;20482;-85
2021/10/24 04:49:37;;;;;;;6.10;2.08;;;;;;;;;;5017316;28;20458;-85
2021/10/24 04:52:04;;;;;;;5.63;2.00;;;;;;;;;;5017240;28;20027;-84
2021/10/24 04:54:30;;;;;;;8.18;2.25;;;;;;;;;;5017223;28;20390;-86
2021/10/24 04:56:57;;;;;;;6.78;2.25;;;;;;;;;;5034886;28;20083;-86
2021/10/24 04:59:23;;;;;;;7.28;2.88;;;;;;;;;;5035048;28;20028;-86
2021/10/24 05:01:50;;;;;;;6.40;2.70;;;;;;;;;;5017114;28;20465;-85
2021/10/24 05:04:18;;;;;;;5.13;2.00;;;;;;;;;;5017037;28;20033;-85
2021/10/24 05:06:44;;;;;;;4.47;2.20;;;;;;;;;;5017106;28;20049;-85
2021/10/24 05:09:10;;;;;;;14.55;4.55;;;;;;;;;;5035193;28;20071;-85
2021/10/24 05:11:36;;;;;;;10.05;4.30;;;;;;;;;;5017041;28;20025;-85
2021/10/24 05:14:03;;;;;;;12.50;4.05;;;;;;;;;;5034640;28;20027;-84
2021/10/24 05:16:29;;;;;;;14.25;5.13;;;;;;;;;;5034582;28;20025;-83
2021/10/24 05:18:55;;;;;;;26.95;6.35;;;;;;;;;;5034521;28;20458;-84
2021/10/24 05:21:21;;;;;;;25.80;6.85;;;;;;;;;;5016511;28;20057;-84
2021/10/24 05:23:48;;;;;;;19.55;7.10;;;;;;;;;;5016916;28;20025;-85
2021/10/24 05:26:14;;;;;;;34.25;8.70;;;;;;;;;;5016520;28;20037;-84
2021/10/24 05:28:40;;;;;;;24.67;9.55;;;;;;;;;;5034302;28;20033;-86
2021/10/24 05:31:06;;;;;;;17.63;7.05;;;;;;;;;;5026966;28;20489;-83
2021/10/24 05:33:32;;;;;;;11.73;4.75;;;;;;;;;;5053485;28;20021;-84
2021/10/24 05:35:58;;;;;;;15.32;5.57;;;;;;;;;;5036067;28;20025;-85
2021/10/24 05:38:24;;;;;;;12.32;4.75;;;;;;;;;;5036129;28;20079;-83
2021/10/24 05:40:51;;;;;;;16.10;5.53;;;;;;;;;;5036084;28;20478;-84
2021/10/24 05:43:17;;;;;;;9.45;4.28;;;;;;;;;;5035988;28;20025;-84
2021/10/24 05:45:45;;;;;;;11.52;4.80;;;;;;;;;;5036018;28;20132;-85
2021/10/24 05:48:14;;;;;;;16.45;5.18;;;;;;;;;;5036321;28;20261;-87
2021/10/24 05:50:42;;;;;;;15.75;4.50;;;;;;;;;;5036178;28;20036;-86
2021/10/24 05:53:08;;;;;;;12.05;4.07;;;;;;;;;;5036196;28;20123;-86
2021/10/24 05:55:36;;;;;;;9.15;3.55;;;;;;;;;;5036440;28;20478;-86
2021/10/24 05:58:02;;;;;;;11.18;4.07;;;;;;;;;;5036307;28;20017;-86
2021/10/24 06:00:29;;;;;;;8.27;3.33;;;;;;;;;;5036132;28;20098;-86
2021/10/24 06:02:55;;;;;;;13.85;4.45;;;;;;;;;;5036593;28;20032;-85
2021/10/24 06:05:21;;;;;;;10.38;4.32;;;;;;;;;;5036800;28;20517;-86
2021/10/24 06:07:48;;;;;;;12.50;4.43;;;;;;;;;;5054346;28;20482;-85
2021/10/24 06:10:21;;;;;;;11.40;5.10;;;;;;;;;;5035957;28;20112;-87
2021/10/24 06:12:54;;;;;;;14.65;5.07;;;;;;;;;;5036413;28;20021;-87
2021/10/24 06:15:21;;;;;;;17.67;5.18;;;;;;;;;;5036451;28;20029;-86
2021/10/24 06:17:49;;;;;;;16.13;6.75;;;;;;;;;;5036224;28;20099;-85
2021/10/24 06:20:16;;;;;;;15.10;5.80;;;;;;;;;;5036658;28;20060;-86
2021/10/24 06:22:42;;;;;;;15.77;7.03;;;;;;;;;;5053942;28;20045;-86
2021/10/24 06:25:09;;;;;;;13.10;6.45;;;;;;;;;;5036269;28;20068;-86
2021/10/24 06:27:42;;;;;;;12.52;5.57;;;;;;;;;;5036434;28;20021;-86
2021/10/24 06:30:12;;;;;;;13.47;6.23;;;;;;;;;;5036810;28;20036;-86
2021/10/24 06:32:39;;;;;;;12.43;5.80;;;;;;;;;;5035936;28;20255;-86
2021/10/24 06:35:06;;;;;;;18.60;5.63;;;;;;;;;;5036910;28;20033;-86
2021/10/24 06:37:46;;;;;;;14.80;6.45;;;;;;;;;;5053933;28;20028;-88
2021/10/24 06:40:13;;;;;;;16.27;6.28;;;;;;;;;;5053871;28;20119;-89
2021/10/24 06:42:39;;;;;;;12.00;6.40;;;;;;;;;;5035806;28;20029;-87
2021/10/24 06:45:06;;;;;;;23.30;7.95;;;;;;;;;;5035878;28;20097;-87
2021/10/24 06:47:33;;;;;;;15.40;7.72;;;;;;;;;;5054346;28;20075;-88
2021/10/24 06:49:59;;;;;;;15.38;7.35;;;;;;;;;;5036041;28;20029;-88
2021/10/24 06:52:25;;;;;;;13.27;5.93;;;;;;;;;;5036135;28;20116;-88
2021/10/24 06:54:52;;;;;;;11.35;4.85;;;;;;;;;;5054029;28;20029;-86
2021/10/24 06:57:21;;;;;;;13.73;5.97;;;;;;;;;;5037553;28;20026;-87
2021/10/24 06:59:47;;;;;;;12.13;5.00;;;;;;;;;;5054127;28;20036;-87
2021/10/24 07:02:13;;;;;;;8.35;2.42;;;;;;;;;;5035551;28;20108;-87
2021/10/24 07:04:39;;;;;;;7.82;3.05;;;;;;;;;;5053355;28;20483;-87
2021/10/24 07:07:06;;;;;;;6.63;2.55;;;;;;;;;;5036959;28;20543;-87
2021/10/24 07:09:32;;;;;;;7.40;3.35;;;;;;;;;;5057002;28;20040;-88
2021/10/24 07:11:58;;;;;;;9.55;3.40;;;;;;;;;;5039291;28;20018;-87
2021/10/24 07:14:26;;;;;;;8.60;3.40;;;;;;;;;;5039399;28;20036;-87
2021/10/24 07:16:52;;;;;;;14.27;3.80;;;;;;;;;;5056798;28;20036;-87
2021/10/24 07:19:18;;;;;;;15.90;7.78;;;;;;;;;;5057193;28;20033;-87
2021/10/24 07:21:45;;;;;;;16.98;5.30;;;;;;;;;;5058242;28;20064;-88
2021/10/24 07:24:11;;;;;;;6.32;3.22;;;;;;;;;;5039045;28;20482;-89
2021/10/24 07:26:37;;;;;;;12.55;3.85;;;;;;;;;;5057549;28;20021;-87
2021/10/24 07:29:03;;;;;;;4.72;2.08;;;;;;;;;;5039777;28;20033;-88
2021/10/24 07:31:29;;;;;;;6.60;2.53;;;;;;;;;;5057339;28;20040;-87
2021/10/24 07:33:56;;;;;;;3.35;1.67;;;;;;;;;;5039251;28;20033;-89
2021/10/24 07:36:23;;;;;;;6.53;1.90;;;;;;;;;;5039108;28;20033;-89
2021/10/24 07:38:49;;;;;;;7.70;2.42;;;;;;;;;;5056650;28;20028;-88
2021/10/24 07:41:15;;;;;;;7.70;2.30;;;;;;;;;;5056893;28;20032;-89
2021/10/24 07:43:41;;;;;;;5.22;2.00;;;;;;;;;;5038743;28;20021;-88
2021/10/24 07:46:08;;;;;;;7.50;2.03;;;;;;;;;;5038673;28;20528;-86
2021/10/24 07:48:34;;;;;;;4.38;1.60;;;;;;;;;;5038342;28;20133;-88
2021/10/24 07:51:01;;;;;;;6.32;1.50;;;;;;;;;;5056693;28;20053;-86
2021/10/24 07:53:29;;;;;;;5.30;1.60;;;;;;;;;;5038234;28;20031;-87
2021/10/24 07:55:56;;;;;;;5.82;1.60;;;;;;;;;;5038103;28;20029;-91
2021/10/24 07:58:23;;;;;;;4.57;1.67;;;;;;;;;;5037937;28;20108;-87
2021/10/24 08:00:50;;;;;;;3.90;1.77;;;;;;;;;;5055851;28;20139;-87
2021/10/24 08:03:17;;;;;;;6.22;1.90;;;;;;;;;;5037984;28;20033;-88
2021/10/24 08:05:44;;;;;;;6.18;2.10;;;;;;;;;;5055708;28;20033;-88
2021/10/24 08:08:11;;;;;;;3.30;1.48;;;;;;;;;;5056235;28;20106;-88
2021/10/24 08:10:37;;;;;;;9.75;1.75;;;;;;;;;;5038049;28;20059;-88
2021/10/24 08:13:03;;;;;;;7.35;2.30;;;;;;;;;;5037868;28;20025;-89
2021/10/24 08:15:30;;;;;;;4.07;1.88;;;;;;;;;;5037704;28;20120;-87
2021/10/24 08:17:56;;;;;;;9.23;1.80;;;;;;;;;;5055401;28;20036;-87
2021/10/24 08:20:22;;;;;;;5.60;1.70;;;;;;;;;;5037470;28;20082;-88
2021/10/24 08:22:49;;;;;;;4.03;1.55;;;;;;;;;;5037597;28;20124;-88
2021/10/24 08:25:16;;;;;;;5.88;1.77;;;;;;;;;;5037778;28;20440;-87
2021/10/24 08:27:43;;;;;;;6.82;1.50;;;;;;;;;;5037536;28;20500;-88
2021/10/24 08:30:09;;;;;;;5.57;1.55;;;;;;;;;;5037485;28;20124;-87
2021/10/24 08:32:36;;;;;;;5.10;1.95;;;;;;;;;;5037409;28;20056;-88
2021/10/24 08:35:05;;;;;;;3.92;1.30;;;;;;;;;;5055253;28;20044;-88
2021/10/24 08:37:31;;;;;;;4.28;2.00;;;;;;;;;;5037209;28;20033;-88
2021/10/24 08:39:57;;;;;;;4.18;1.95;;;;;;;;;;5037372;28;20029;-89
2021/10/24 08:42:31;;;;;;;6.20;1.40;;;;;;;;;;5037278;28;20021;-89
2021/10/24 08:44:58;;;;;;;5.03;1.27;;;;;;;;;;5037220;28;20037;-87
2021/10/24 08:47:28;;;;;;;3.55;1.40;;;;;;;;;;5055644;28;20033;-88
2021/10/24 08:49:55;;;;;;;3.90;1.30;;;;;;;;;;5037045;28;20052;-88
2021/10/24 08:52:21;;;;;;;10.35;1.60;;;;;;;;;;5037113;28;20436;-89
2021/10/24 08:54:50;;;;;;;5.45;1.52;;;;;;;;;;5037004;28;20115;-89
2021/10/24 08:57:26;;;;;;;3.97;1.10;;;;;;;;;;5037065;28;20485;-88
2021/10/24 08:59:56;;;;;;;5.07;1.42;;;;;;;;;;5036925;28;20021;-89
2021/10/24 09:02:23;;;;;;;3.33;1.20;;;;;;;;;;5037452;28;20060;-89
2021/10/24 09:04:51;;;;;;;5.85;1.40;;;;;;;;;;5037684;28;20063;-87
2021/10/24 09:07:17;;;;;;;3.47;1.30;;;;;;;;;;5037558;28;20029;-88
2021/10/24 09:09:43;;;;;;;2.85;1.30;;;;;;;;;;5037662;28;20024;-87
2021/10/24 09:12:11;;;;;;;3.97;1.23;;;;;;;;;;5036945;28;20025;-87
2021/10/24 09:14:40;;;;;;;7.60;1.23;;;;;;;;;;5037364;28;20025;-88
2021/10/24 09:17:07;;;;;;;4.20;1.38;;;;;;;;;;5037030;28;20033;-87
2021/10/24 09:19:34;;;;;;;6.38;1.20;;;;;;;;;;5037633;28;20028;-88
2021/10/24 09:22:12;;;;;;;5.38;1.42;;;;;;;;;;5033428;28;20049;-88
2021/10/24 09:24:38;;;;;;;4.47;1.17;;;;;;;;;;5035654;28;20029;-88
2021/10/24 09:27:09;;;;;;;4.85;1.20;;;;;;;;;;5034772;28;20032;-86
2021/10/24 09:29:36;;;;;;;8.30;1.20;;;;;;;;;;5033064;28;20029;-87
2021/10/24 09:32:02;;;;;;;6.35;2.17;;;;;;;;;;5034678;28;20029;-87
2021/10/24 09:34:29;;;;;;;4.97;2.05;;;;;;;;;;5034545;28;20037;-88
2021/10/24 09:36:56;;;;;;;3.88;1.25;;;;;;;;;;5033425;28;20132;-88
2021/10/24 09:39:26;;;;;;;3.60;1.25;;;;;;;;;;5033101;28;20073;-88
2021/10/24 09:42:09;;;;;;;3.15;0.93;;;;;;;;;;5033260;28;20025;-87
2021/10/24 09:44:35;;;;;;;2.13;0.90;;;;;;;;;;5032814;28;20491;-88
2021/10/24 09:47:01;;;;;;;5.20;1.30;;;;;;;;;;5032785;28;20033;-90
2021/10/24 09:49:27;;;;;;;4.47;1.23;;;;;;;;;;5034070;28;20470;-86
2021/10/24 09:51:54;;;;;;;6.47;1.40;;;;;;;;;;5032694;28;20096;-87
2021/10/24 09:54:24;;;;;;;4.32;1.17;;;;;;;;;;5033264;28;20034;-88
2021/10/24 09:56:51;;;;;;;6.18;1.67;;;;;;;;;;5033001;28;20129;-87
2021/10/24 09:59:18;;;;;;;3.63;1.23;;;;;;;;;;5032669;28;20481;-90
2021/10/24 10:01:46;;;;;;;3.38;1.00;;;;;;;;;;5032628;28;20067;-89
2021/10/24 10:04:13;;;;;;;4.38;1.30;;;;;;;;;;5032564;28;20034;-88
2021/10/24 10:06:40;;;;;;;5.13;1.38;;;;;;;;;;5033799;28;20021;-89
2021/10/24 10:09:06;;;;;;;4.13;1.10;;;;;;;;;;5033798;28;20030;-89
2021/10/24 10:11:45;;;;;;;3.80;1.13;;;;;;;;;;5032423;28;20030;-88
2021/10/24 10:14:14;;;;;;;5.22;1.30;;;;;;;;;;5032378;28;20104;-90
2021/10/24 10:16:44;;;;;;;6.97;1.27;;;;;;;;;;5032802;28;20030;-88
2021/10/24 10:19:11;;;;;;;6.03;1.40;;;;;;;;;;5033625;28;20017;-88
2021/10/24 10:21:41;;;;;;;4.53;1.20;;;;;;;;;;5032294;28;20060;-88
2021/10/24 10:24:08;;;;;;;4.97;1.45;;;;;;;;;;5032260;28;20064;-89
2021/10/24 10:26:39;;;;;;;4.55;1.48;;;;;;;;;;5032291;28;20030;-88
2021/10/24 10:29:07;;;;;;;5.53;1.90;;;;;;;;;;5032167;28;20028;-90
2021/10/24 10:31:34;;;;;;;4.55;1.20;;;;;;;;;;5032397;28;20022;-87
2021/10/24 10:34:03;;;;;;;5.25;1.77;;;;;;;;;;5034115;28;20108;-88
2021/10/24 10:36:44;;;;;;;5.53;1.20;;;;;;;;;;5032029;28;20033;-88
2021/10/24 10:39:29;;;;;;;3.78;1.30;;;;;;;;;;5032304;28;20028;-89
2021/10/24 10:41:55;;;;;;;4.40;0.90;;;;;;;;;;5034899;28;20033;-87
2021/10/24 10:44:22;;;;;;;3.97;0.90;;;;;;;;;;5038034;28;20041;-88
2021/10/24 10:46:48;;;;;;;2.90;0.82;;;;;;;;;;5036257;28;20072;-88
2021/10/24 10:49:27;;;;;;;4.75;1.00;;;;;;;;;;5037441;28;20052;-88
2021/10/24 10:51:54;;;;;;;6.05;1.27;;;;;;;;;;5036048;28;20025;-87
2021/10/24 10:54:21;;;;;;;3.60;1.15;;;;;;;;;;5036735;28;20029;-87
2021/10/24 10:56:54;;;;;;;6.45;1.92;;;;;;;;;;5037676;28;20051;-87
2021/10/24 10:59:30;;;;;;;3.78;1.20;;;;;;;;;;5035941;28;20028;-88
2021/10/24 11:02:16;;;;;;;3.97;1.20;;;;;;;;;;5035742;28;20029;-87
2021/10/24 11:04:52;;;;;;;3.72;1.10;;;;;;;;;;5035564;28;20026;-86
2021/10/24 11:07:35;;;;;;;12.05;1.10;;;;;;;;;;5035737;28;20485;-87
2021/10/24 11:10:01;;;;;;;4.43;0.88;;;;;;;;;;5035683;28;20033;-88
2021/10/24 11:12:31;;;;;;;5.95;1.08;;;;;;;;;;5036930;28;20545;-85
2021/10/24 11:15:06;;;;;;;2.00;0.50;;;;;;;;;;5036487;28;20033;-84
2021/10/24 11:17:34;;;;;;;4.50;1.00;;;;;;;;;;5039086;28;20029;-87
2021/10/24 11:20:14;;;;;;;3.78;1.02;;;;;;;;;;5035513;28;20025;-88
2021/10/24 11:22:44;;;;;;;4.75;1.20;;;;;;;;;;5035283;28;20050;-88
2021/10/24 11:25:10;;;;;;;2.88;1.05;;;;;;;;;;5036706;28;20025;-89
2021/10/24 11:27:36;;;;;;;6.03;1.20;;;;;;;;;;5036700;28;20026;-88
2021/10/24 11:30:05;;;;;;;6.53;1.20;;;;;;;;;;5035346;28;20018;-87
2021/10/24 11:32:33;;;;;;;4.15;1.33;;;;;;;;;;5035307;28;20033;-87
2021/10/24 11:35:12;;;;;;;3.33;1.08;;;;;;;;;;5035277;28;20436;-88
2021/10/24 11:37:40;;;;;;;3.05;0.93;;;;;;;;;;5035158;28;20116;-88
2021/10/24 11:40:13;;;;;;;3.22;1.05;;;;;;;;;;5035444;28;20025;-87
2021/10/24 11:42:40;;;;;;;2.92;1.17;;;;;;;;;;5035330;28;20036;-89
2021/10/24 11:45:19;;;;;;;5.68;1.25;;;;;;;;;;5035861;28;20026;-90
2021/10/24 11:48:04;;;;;;;3.67;1.20;;;;;;;;;;5035894;28;20025;-90
2021/10/24 11:50:34;;;;;;;2.83;0.95;;;;;;;;;;5037356;28;20087;-90
2021/10/24 11:53:01;;;;;;;4.75;1.35;;;;;;;;;;5036087;28;20052;-87
2021/10/24 11:55:27;;;;;;;4.78;1.15;;;;;;;;;;5035340;28;20030;-88
2021/10/24 11:58:05;;;;;;;4.28;1.13;;;;;;;;;;5035598;28;20387;-88
2021/10/24 12:01:05;;;;;;;4.13;0.80;;;;;;;;;;5035899;28;20108;-87
2021/10/24 12:03:26;;;;;;;3.40;0.95;;;;;;;;;;5035098;28;20034;-89
2021/10/24 12:05:52;;;;;;;5.00;1.50;;;;;;;;;;5035773;28;20037;-88
2021/10/24 12:08:19;;;;;;;2.58;1.30;;;;;;;;;;5036735;28;20022;-89
2021/10/24 12:10:49;;;;;;;4.28;1.13;;;;;;;;;;5037031;28;20023;-90
2021/10/24 12:13:34;;;;;;;3.28;1.13;;;;;;;;;;5035989;28;20116;-88
2021/10/24 12:16:01;;;;;;;4.50;1.10;;;;;;;;;;5035925;28;20034;-88
2021/10/24 12:18:35;;;;;;;3.38;1.02;;;;;;;;;;5035677;28;20076;-88
2021/10/24 12:21:03;;;;;;;3.28;1.20;;;;;;;;;;5035716;28;20105;-89
2021/10/24 12:23:37;;;;;;;4.57;1.30;;;;;;;;;;5035781;28;20049;-87
2021/10/24 12:26:06;;;;;;;4.57;1.73;;;;;;;;;;5035689;28;20034;-88
2021/10/24 12:28:37;;;;;;;2.90;1.15;;;;;;;;;;5035178;28;20120;-88
2021/10/24 12:31:06;;;;;;;4.63;1.63;;;;;;;;;;5034703;28;20033;-87
2021/10/24 12:33:33;;;;;;;4.25;1.50;;;;;;;;;;5034620;28;20030;-86
2021/10/24 12:36:00;;;;;;;5.18;1.20;;;;;;;;;;5034827;28;20060;-87
2021/10/24 12:38:43;;;;;;;4.80;1.10;;;;;;;;;;5035136;28;20033;-88
2021/10/24 12:41:09;;;;;;;4.93;1.40;;;;;;;;;;5034955;28;20613;-89
2021/10/24 12:43:46;;;;;;;6.65;1.25;;;;;;;;;;5035256;28;20031;-88
2021/10/24 12:46:12;;;;;;;4.40;1.20;;;;;;;;;;5034868;28;20060;-88
2021/10/24 12:48:41;;;;;;;5.72;1.48;;;;;;;;;;5034856;28;20082;-92
2021/10/24 12:51:19;;;;;;;5.43;1.48;;;;;;;;;;5035160;28;20032;-87
2021/10/24 12:53:46;;;;;;;3.08;1.20;;;;;;;;;;5034037;28;20537;-87
2021/10/24 12:56:12;;;;;;;4.15;1.35;;;;;;;;;;5033760;28;20124;-85
2021/10/24 12:58:38;;;;;;;3.22;0.80;;;;;;;;;;5034905;28;20032;-87
2021/10/24 13:01:04;;;;;;;3.83;0.93;;;;;;;;;;5035366;28;20021;-87
2021/10/24 13:03:31;;;;;;;5.80;1.27;;;;;;;;;;5033700;28;20053;-85
2021/10/24 13:05:58;;;;;;;6.32;1.48;;;;;;;;;;5034732;28;20021;-88
2021/10/24 13:08:24;;;;;;;5.22;1.60;;;;;;;;;;5033833;28;20048;-87
2021/10/24 13:10:50;;;;;;;2.90;1.00;;;;;;;;;;5035804;28;20114;-87
2021/10/24 13:13:16;;;;;;;4.63;1.25;;;;;;;;;;5033717;28;20494;-88
2021/10/24 13:15:45;;;;;;;7.75;1.60;;;;;;;;;;5033391;28;20037;-84
2021/10/24 13:18:12;;;;;;;4.38;0.90;;;;;;;;;;5033447;28;20034;-87
2021/10/24 13:20:40;;;;;;;5.47;1.35;;;;;;;;;;5035335;28;20485;-86
2021/10/24 13:23:06;;;;;;;3.53;1.15;;;;;;;;;;5055336;28;20037;-87
2021/10/24 13:25:33;;;;;;;4.47;1.27;;;;;;;;;;5037034;28;20053;-87
2021/10/24 13:27:59;;;;;;;6.78;2.08;;;;;;;;;;5036825;28;20029;-86
2021/10/24 13:30:28;;;;;;;15.10;3.53;;;;;;;;;;5036926;28;20025;-85
2021/10/24 13:32:54;;;;;;;5.85;1.85;;;;;;;;;;5054523;28;20083;-88
2021/10/24 13:35:21;;;;;;;5.43;1.63;;;;;;;;;;5036396;28;20115;-87
2021/10/24 13:37:48;;;;;;;7.22;2.50;;;;;;;;;;5036093;28;20048;-84
2021/10/24 13:40:15;;;;;;;10.23;2.50;;;;;;;;;;5036284;28;20043;-87
2021/10/24 13:42:42;;;;;;;8.75;2.25;;;;;;;;;;5036360;28;20126;-86
2021/10/24 13:45:10;;;;;;;19.48;5.85;;;;;;;;;;5036873;28;20032;-87
2021/10/24 13:47:36;;;;;;;19.15;7.75;;;;;;;;;;5055128;28;20034;-88
2021/10/24 13:50:03;;;;;;;8.48;3.17;;;;;;;;;;5036589;28;20025;-88
2021/10/24 13:52:30;;;;;;;8.50;3.45;;;;;;;;;;5037784;28;20025;-88
2021/10/24 13:54:56;;;;;;;6.22;2.45;;;;;;;;;;5055088;28;20029;-88
2021/10/24 13:57:22;;;;;;;7.97;2.20;;;;;;;;;;5055395;28;20033;-88
2021/10/24 13:59:49;;;;;;;7.20;2.10;;;;;;;;;;5037392;28;20099;-87
2021/10/24 14:02:16;;;;;;;11.98;1.77;;;;;;;;;;5036990;28;20139;-88
2021/10/24 14:04:43;;;;;;;5.95;1.10;;;;;;;;;;5036862;28;20057;-88
2021/10/24 14:07:10;;;;;;;5.43;1.85;;;;;;;;;;5036424;28;20025;-85
2021/10/24 14:09:36;;;;;;;3.85;1.60;;;;;;;;;;5036491;28;20028;-88
2021/10/24 14:12:03;;;;;;;3.83;1.13;;;;;;;;;;5054306;28;20033;-88
2021/10/24 14:14:29;;;;;;;5.07;1.40;;;;;;;;;;5054089;28;20032;-87
2021/10/24 14:16:55;;;;;;;3.88;1.17;;;;;;;;;;5036079;28;20025;-87
2021/10/24 14:19:21;;;;;;;6.25;1.80;;;;;;;;;;5036566;28;20029;-87
2021/10/24 14:21:47;;;;;;;5.65;1.63;;;;;;;;;;5032777;28;20218;-85
2021/10/24 14:24:18;;;;;;;6.07;2.22;;;;;;;;;;5033614;28;20025;-85
2021/10/24 14:26:46;;;;;;;6.53;1.85;;;;;;;;;;5034027;28;20049;-85
2021/10/24 14:29:13;;;;;;;2.33;1.05;;;;;;;;;;5033616;28;20106;-87
2021/10/24 14:31:41;;;;;;;8.93;1.77;;;;;;;;;;5032295;28;20073;-86
2021/10/24 14:34:07;;;;;;;4.93;2.05;;;;;;;;;;5033524;28;20044;-88
2021/10/24 14:36:34;;;;;;;6.53;1.55;;;;;;;;;;5032398;28;20025;-85
2021/10/24 14:39:00;;;;;;;10.30;1.70;;;;;;;;;;5032342;28;20466;-86
2021/10/24 14:41:26;;;;;;;7.45;2.20;;;;;;;;;;5032249;28;20026;-86